Time;durP1;ratioP1;P1;durP2;ratioP2;P2;SDS_P1;SDS_P2;PMS_P1;PMS_P2;Temp;Humidity;BMP_temperature;BMP_pressure;BME280_temperature;BME280_humidity;BME280_pressure;Samples;Min_cycle;Max_cycle;Signal;HPM_P1;HPM_P2
2022/09/12 00:00:38;;;;;;;6.70;4.90;;;14.00;99.90;;;;;;5046565;28;20037;-59
2022/09/12 00:03:04;;;;;;;6.97;4.97;;;13.90;99.90;;;;;;5049534;28;20127;-58
2022/09/12 00:05:31;;;;;;;5.53;4.82;;;13.90;99.90;;;;;;5072085;28;20115;-56
2022/09/12 00:07:56;;;;;;;7.18;5.32;;;13.80;99.90;;;;;;5054851;28;20040;-61
2022/09/12 00:10:22;;;;;;;4.95;4.43;;;13.80;99.90;;;;;;5072454;28;20040;-56
2022/09/12 00:12:47;;;;;;;7.03;5.00;;;13.80;99.90;;;;;;5034930;28;20048;-57
2022/09/12 00:15:13;;;;;;;5.78;5.05;;;13.80;99.90;;;;;;5067821;28;20119;-57
2022/09/12 00:17:39;;;;;;;7.18;4.97;;;13.80;99.90;;;;;;5072418;28;20086;-61
2022/09/12 00:20:07;;;;;;;6.95;4.80;;;13.80;99.90;;;;;;5072278;28;20102;-58
2022/09/12 00:22:34;;;;;;;6.65;5.00;;;13.70;99.90;;;;;;5071993;28;20041;-56
2022/09/12 00:25:00;;;;;;;6.68;4.82;;;13.70;99.90;;;;;;5072242;28;20040;-57
2022/09/12 00:27:27;;;;;;;7.50;4.13;;;13.70;99.90;;;;;;5072399;28;20044;-56
2022/09/12 00:29:53;;;;;;;5.78;4.88;;;13.70;99.90;;;;;;5069805;28;20091;-59
2022/09/12 00:32:19;;;;;;;8.27;4.85;;;13.70;99.90;;;;;;5052865;28;20076;-57
2022/09/12 00:34:45;;;;;;;5.50;4.88;;;13.60;99.90;;;;;;5065709;28;20053;-62
2022/09/12 00:37:11;;;;;;;5.75;4.28;;;13.50;99.90;;;;;;5064361;28;20122;-59
2022/09/12 00:39:36;;;;;;;5.15;4.65;;;13.50;99.90;;;;;;5071661;28;20086;-57
2022/09/12 00:42:02;;;;;;;5.97;5.43;;;13.40;99.90;;;;;;5072092;28;20040;-56
2022/09/12 00:44:28;;;;;;;6.13;5.57;;;13.50;99.90;;;;;;5054195;28;20047;-56
2022/09/12 00:46:53;;;;;;;6.30;5.00;;;13.40;99.90;;;;;;5068440;28;20044;-56
2022/09/12 00:49:30;;;;;;;6.32;5.20;;;13.50;99.90;;;;;;5069189;28;20085;-56
2022/09/12 00:52:07;;;;;;;6.82;5.63;;;13.40;99.90;;;;;;5072445;28;20048;-56
2022/09/12 00:54:41;;;;;;;6.28;4.78;;;13.40;99.90;;;;;;5071723;28;20078;-56
2022/09/12 00:57:10;;;;;;;6.43;4.78;;;13.30;99.90;;;;;;5071285;28;20040;-56
2022/09/12 00:59:44;;;;;;;5.65;5.13;;;13.30;99.90;;;;;;5053974;28;20044;-56
2022/09/12 01:02:10;;;;;;;6.68;5.00;;;13.30;99.90;;;;;;5071344;28;20114;-56
2022/09/12 01:04:38;;;;;;;6.25;5.40;;;13.30;99.90;;;;;;5072011;28;20451;-56
2022/09/12 01:07:05;;;;;;;5.25;4.55;;;13.30;99.90;;;;;;5054370;28;20115;-56
2022/09/12 01:09:31;;;;;;;5.07;4.55;;;13.40;99.90;;;;;;5071316;28;20521;-56
2022/09/12 01:11:57;;;;;;;7.22;5.05;;;13.20;99.90;;;;;;5072114;28;20079;-56
2022/09/12 01:14:23;;;;;;;5.50;4.97;;;13.20;99.90;;;;;;5071752;28;20052;-56
2022/09/12 01:16:50;;;;;;;7.28;5.10;;;13.20;99.90;;;;;;5071255;28;20040;-56
2022/09/12 01:19:45;;;;;;;6.05;5.45;;;13.20;99.90;;;;;;5071765;28;20048;-57
2022/09/12 01:22:29;;;;;;;;;;;13.20;99.90;;;;;;5058827;28;20041;-56
2022/09/12 01:25:00;;;;;;;4.82;4.28;;;13.20;99.90;;;;;;5072448;28;20003;-56
2022/09/12 01:27:26;;;;;;;7.15;5.32;;;13.20;99.90;;;;;;5076049;28;20041;-56
2022/09/12 01:30:01;;;;;;;5.90;5.20;;;13.10;99.90;;;;;;5074860;28;20060;-56
2022/09/12 01:32:33;;;;;;;6.03;5.40;;;13.10;99.90;;;;;;5075792;28;20052;-56
2022/09/12 01:35:05;;;;;;;5.60;5.10;;;13.10;99.90;;;;;;5075733;28;20044;-56
2022/09/12 01:38:07;;;;;;;5.93;5.18;;;13.10;99.90;;;;;;5057728;28;20050;-56
2022/09/12 01:40:39;;;;;;;5.88;5.00;;;13.00;99.90;;;;;;5075513;28;20589;-56
2022/09/12 01:43:17;;;;;;;5.80;5.30;;;13.10;99.90;;;;;;5075914;28;20052;-56
2022/09/12 01:45:55;;;;;;;8.13;5.57;;;13.10;99.90;;;;;;5068541;28;20040;-60
2022/09/12 01:48:26;;;;;;;7.68;6.35;;;13.10;99.90;;;;;;5075387;28;20045;-56
2022/09/12 01:50:59;;;;;;;7.00;6.30;;;13.10;99.90;;;;;;5075446;28;20126;-56
2022/09/12 01:53:37;;;;;;;7.43;6.72;;;13.00;99.90;;;;;;5075722;28;20044;-57
2022/09/12 01:56:10;;;;;;;7.25;6.55;;;13.00;99.90;;;;;;5075667;28;20363;-58
2022/09/12 01:58:48;;;;;;;7.05;5.90;;;12.90;99.90;;;;;;5070260;28;20045;-60
2022/09/12 02:01:24;;;;;;;7.28;6.32;;;12.90;99.90;;;;;;5071804;28;20044;-60
2022/09/12 02:04:07;;;;;;;8.93;7.05;;;12.90;99.90;;;;;;5060036;28;20367;-57
2022/09/12 02:06:53;;;;;;;7.60;6.68;;;12.80;99.90;;;;;;5057470;28;20040;-61
2022/09/12 02:09:28;;;;;;;8.68;7.35;;;12.90;99.90;;;;;;5074983;28;20048;-57
2022/09/12 02:11:58;;;;;;;9.35;7.40;;;12.80;99.90;;;;;;5075441;28;20048;-59
2022/09/12 02:14:28;;;;;;;8.77;7.93;;;12.90;99.90;;;;;;5074450;28;20088;-57
2022/09/12 02:17:17;;;;;;;15.25;8.95;;;12.90;99.90;;;;;;5071163;28;20044;-56
2022/09/12 02:19:48;;;;;;;8.95;7.75;;;12.90;99.90;;;;;;5058492;28;20037;-64
2022/09/12 02:22:18;;;;;;;9.73;8.73;;;12.90;99.90;;;;;;5074808;28;20040;-60
2022/09/12 02:24:47;;;;;;;8.80;7.90;;;12.90;99.90;;;;;;5074242;28;20090;-57
2022/09/12 02:27:22;;;;;;;11.45;8.90;;;12.90;99.90;;;;;;5074693;28;20044;-64
2022/09/12 02:29:48;;;;;;;11.35;9.25;;;12.80;99.90;;;;;;5058881;28;20063;-60
2022/09/12 02:32:28;;;;;;;14.43;10.25;;;12.80;99.90;;;;;;5040553;28;20195;-62
2022/09/12 02:35:05;;;;;;;11.93;10.07;;;12.90;99.90;;;;;;5076723;28;20492;-60
2022/09/12 02:38:07;;;;;;;10.77;9.63;;;12.80;99.90;;;;;;5064119;28;20099;-63
2022/09/12 02:40:34;;;;;;;10.93;9.32;;;12.70;99.90;;;;;;5055876;28;20056;-64
2022/09/12 02:43:02;;;;;;;14.43;11.57;;;12.70;99.90;;;;;;5056328;28;20059;-64
2022/09/12 02:45:28;;;;;;;12.60;10.00;;;12.70;99.90;;;;;;5074021;28;20052;-57
2022/09/12 02:48:12;;;;;;;12.35;10.10;;;12.70;99.90;;;;;;5074441;28;20051;-57
2022/09/12 02:50:38;;;;;;;12.23;10.93;;;12.70;99.90;;;;;;5074098;28;20545;-57
2022/09/12 02:53:07;;;;;;;13.05;10.23;;;12.60;99.90;;;;;;5074780;28;20080;-56
2022/09/12 02:55:34;;;;;;;11.23;9.02;;;12.40;99.90;;;;;;5074010;28;20042;-56
2022/09/12 02:58:05;;;;;;;12.80;9.98;;;12.70;99.90;;;;;;5073925;28;20115;-56
2022/09/12 03:00:40;;;;;;;12.55;10.98;;;12.40;99.90;;;;;;5074233;28;20044;-56
2022/09/12 03:03:32;;;;;;;14.60;11.18;;;12.50;99.90;;;;;;5073714;28;20051;-56
2022/09/12 03:06:17;;;;;;;12.00;10.30;;;12.50;99.90;;;;;;5049085;28;20052;-56
2022/09/12 03:09:16;;;;;;;16.10;12.73;;;12.40;99.90;;;;;;5056427;28;20036;-56
2022/09/12 03:11:49;;;;;;;13.27;11.70;;;12.40;99.90;;;;;;5057733;28;20045;-56
2022/09/12 03:14:50;;;;;;;13.87;11.17;;;12.40;99.90;;;;;;5073604;28;20036;-56
2022/09/12 03:17:37;;;;;;;15.45;10.90;;;12.40;99.90;;;;;;5011541;28;20788;-56
2022/09/12 03:20:37;;;;;;;13.15;11.80;;;12.40;99.90;;;;;;5060398;28;20032;-56
2022/09/12 03:23:14;;;;;;;12.32;10.70;;;12.50;99.90;;;;;;5073844;28;20040;-56
2022/09/12 03:25:51;;;;;;;12.82;10.88;;;12.40;99.90;;;;;;5073340;28;20040;-56
2022/09/12 03:28:19;;;;;;;13.93;11.40;;;12.40;99.90;;;;;;5072943;28;20049;-56
2022/09/12 03:30:47;;;;;;;16.40;12.18;;;12.40;99.90;;;;;;5072922;28;20498;-56
2022/09/12 03:33:19;;;;;;;14.27;12.75;;;12.40;99.90;;;;;;5073630;28;20045;-56
2022/09/12 03:35:45;;;;;;;13.80;11.70;;;12.40;99.90;;;;;;5064268;28;20371;-56
2022/09/12 03:38:11;;;;;;;16.67;14.10;;;12.40;99.90;;;;;;5073436;28;20044;-57
2022/09/12 03:40:38;;;;;;;20.88;16.25;;;12.40;99.90;;;;;;5072958;28;20113;-56
2022/09/12 03:43:06;;;;;;;20.98;15.27;;;12.50;99.90;;;;;;5070241;28;20047;-57
2022/09/12 03:45:32;;;;;;;27.02;19.27;;;12.50;99.90;;;;;;5061678;28;20092;-56
2022/09/12 03:47:58;;;;;;;21.25;16.02;;;12.60;99.90;;;;;;5058557;28;20067;-56
2022/09/12 03:50:24;;;;;;;21.90;18.00;;;12.70;99.90;;;;;;5073151;28;20125;-56
2022/09/12 03:52:50;;;;;;;25.50;17.95;;;12.70;99.90;;;;;;5072992;28;20048;-56
2022/09/12 03:55:16;;;;;;;20.77;17.98;;;12.70;99.90;;;;;;5072732;28;20040;-56
2022/09/12 03:57:42;;;;;;;28.00;20.90;;;12.80;99.90;;;;;;5056564;28;20502;-56
2022/09/12 04:00:09;;;;;;;26.33;19.98;;;12.80;99.90;;;;;;5072136;28;20076;-56
2022/09/12 04:02:35;;;;;;;26.95;19.48;;;12.80;99.90;;;;;;5054404;28;20131;-56
2022/09/12 04:05:01;;;;;;;22.58;18.60;;;12.70;99.90;;;;;;5072840;28;20143;-56
2022/09/12 04:07:27;;;;;;;25.83;19.67;;;12.70;99.90;;;;;;5072615;28;20090;-56
2022/09/12 04:09:53;;;;;;;23.23;18.38;;;12.70;99.90;;;;;;5071921;28;20127;-56
2022/09/12 04:12:19;;;;;;;25.77;19.10;;;12.70;99.90;;;;;;5072704;28;20406;-56
2022/09/12 04:14:45;;;;;;;25.00;17.92;;;12.80;99.90;;;;;;5072209;28;20041;-56
2022/09/12 04:17:11;;;;;;;21.83;17.80;;;12.60;99.90;;;;;;5066458;28;20045;-56
2022/09/12 04:19:36;;;;;;;19.65;16.75;;;12.70;99.90;;;;;;5071821;28;20093;-56
2022/09/12 04:22:03;;;;;;;25.55;18.08;;;12.60;99.90;;;;;;5054529;28;20040;-56
2022/09/12 04:24:29;;;;;;;23.10;17.73;;;12.60;99.90;;;;;;5072756;28;20116;-56
2022/09/12 04:26:54;;;;;;;22.40;17.67;;;12.60;99.90;;;;;;5072362;28;20513;-57
2022/09/12 04:29:20;;;;;;;19.95;15.30;;;12.50;99.90;;;;;;5053331;28;20076;-56
2022/09/12 04:31:46;;;;;;;22.83;17.40;;;12.50;99.90;;;;;;5072849;28;20056;-56
2022/09/12 04:34:12;;;;;;;19.63;15.02;;;12.50;99.90;;;;;;5072343;28;20125;-57
2022/09/12 04:36:38;;;;;;;19.95;16.42;;;12.50;99.90;;;;;;5071384;28;20554;-56
2022/09/12 04:39:04;;;;;;;18.80;15.13;;;12.40;99.90;;;;;;5066993;28;20048;-57
2022/09/12 04:41:36;;;;;;;22.83;17.50;;;12.40;99.90;;;;;;5072428;28;20068;-56
2022/09/12 04:44:09;;;;;;;24.25;17.95;;;12.50;99.90;;;;;;5068161;28;20036;-56
2022/09/12 04:46:37;;;;;;;18.35;15.18;;;12.50;99.90;;;;;;5072029;28;20084;-56
2022/09/12 04:49:03;;;;;;;24.48;18.23;;;12.40;99.90;;;;;;5071788;28;20082;-56
2022/09/12 04:51:32;;;;;;;21.15;17.20;;;12.50;99.90;;;;;;5071730;28;20094;-56
2022/09/12 04:54:09;;;;;;;24.92;19.00;;;12.50;99.90;;;;;;5071513;28;20036;-56
2022/09/12 04:56:39;;;;;;;30.08;18.95;;;12.50;99.90;;;;;;5067175;28;20506;-56
2022/09/12 04:59:06;;;;;;;21.58;17.77;;;12.50;99.90;;;;;;5070412;28;20094;-56
2022/09/12 05:01:32;;;;;;;22.60;17.83;;;12.60;99.90;;;;;;5053451;28;20059;-56
2022/09/12 05:03:58;;;;;;;23.63;17.85;;;12.60;99.90;;;;;;5071553;28;20044;-56
2022/09/12 05:06:30;;;;;;;21.88;18.27;;;12.60;99.90;;;;;;5072003;28;20067;-56
2022/09/12 05:08:57;;;;;;;24.38;19.58;;;12.70;99.90;;;;;;5071022;28;20106;-56
2022/09/12 05:11:25;;;;;;;24.63;19.50;;;12.80;99.90;;;;;;5070279;28;20107;-56
2022/09/12 05:13:51;;;;;;;24.65;20.25;;;12.80;99.90;;;;;;5052071;28;20083;-56
2022/09/12 05:16:18;;;;;;;24.65;19.13;;;13.00;99.90;;;;;;5070605;28;20044;-56
2022/09/12 05:18:45;;;;;;;24.17;20.08;;;12.90;99.90;;;;;;5062833;28;20040;-56
2022/09/12 05:21:13;;;;;;;28.15;21.73;;;13.00;99.90;;;;;;5069901;28;20040;-56
2022/09/12 05:23:39;;;;;;;28.85;21.95;;;13.10;99.90;;;;;;5070144;28;20098;-56
2022/09/12 05:26:06;;;;;;;31.52;22.33;;;13.20;99.90;;;;;;5070160;28;20040;-56
2022/09/12 05:28:34;;;;;;;32.90;24.23;;;13.30;99.90;;;;;;5069298;28;20045;-56
2022/09/12 05:31:18;;;;;;;32.72;22.20;;;13.30;99.90;;;;;;5068666;28;20476;-56
2022/09/12 05:33:46;;;;;;;29.05;21.45;;;13.40;99.90;;;;;;5053576;28;20106;-56
2022/09/12 05:36:14;;;;;;;28.77;22.48;;;13.50;99.90;;;;;;5065951;28;20468;-56
2022/09/12 05:38:40;;;;;;;30.10;21.35;;;13.50;99.90;;;;;;5044681;28;20124;-56
2022/09/12 05:41:09;;;;;;;33.03;23.08;;;13.60;99.90;;;;;;5056781;28;20121;-57
2022/09/12 05:43:36;;;;;;;29.63;21.35;;;13.60;99.90;;;;;;5061078;28;20127;-59
2022/09/12 05:46:11;;;;;;;31.67;21.80;;;13.70;99.90;;;;;;5064046;28;20087;-59
2022/09/12 05:48:38;;;;;;;26.38;21.70;;;13.70;99.90;;;;;;5033746;28;20115;-60
2022/09/12 05:51:07;;;;;;;30.35;21.25;;;13.80;99.90;;;;;;5052392;28;20052;-66
2022/09/12 05:53:34;;;;;;;26.55;21.15;;;13.80;99.90;;;;;;5055087;28;20052;-61
2022/09/12 05:56:08;;;;;;;27.23;19.02;;;13.90;99.90;;;;;;5046076;28;20107;-64
2022/09/12 05:58:35;;;;;;;27.55;20.20;;;14.00;99.90;;;;;;5035940;28;20049;-61
2022/09/12 06:01:06;;;;;;;27.45;21.05;;;14.00;99.90;;;;;;5063269;28;20045;-64
2022/09/12 06:03:33;;;;;;;24.88;18.70;;;14.00;99.90;;;;;;5067114;28;20049;-66
2022/09/12 06:06:04;;;;;;;25.42;19.70;;;14.10;99.90;;;;;;5071007;28;20064;-66
2022/09/12 06:08:32;;;;;;;25.75;19.77;;;14.20;99.90;;;;;;5071140;28;20048;-65
2022/09/12 06:11:03;;;;;;;27.50;20.60;;;14.40;99.90;;;;;;5055122;28;20048;-65
2022/09/12 06:13:35;;;;;;;26.13;21.08;;;14.30;99.90;;;;;;5057368;28;20065;-64
2022/09/12 06:16:17;;;;;;;24.08;18.73;;;14.40;99.90;;;;;;5056649;28;20392;-57
2022/09/12 06:18:48;;;;;;;22.98;17.98;;;14.50;99.90;;;;;;5073650;28;20490;-57
2022/09/12 06:21:14;;;;;;;27.23;21.42;;;14.50;99.90;;;;;;5074183;28;20083;-57
2022/09/12 06:23:40;;;;;;;28.80;20.45;;;14.50;99.90;;;;;;5075139;28;20060;-57
2022/09/12 06:26:09;;;;;;;25.40;19.98;;;14.60;99.90;;;;;;5074676;28;20028;-57
2022/09/12 06:28:36;;;;;;;27.15;19.52;;;14.70;99.90;;;;;;5073431;28;20088;-57
2022/09/12 06:31:15;;;;;;;26.85;20.45;;;14.70;99.90;;;;;;5074061;28;20052;-57
2022/09/12 06:33:45;;;;;;;25.60;18.77;;;14.80;99.90;;;;;;5056676;28;20075;-57
2022/09/12 06:36:19;;;;;;;24.98;18.77;;;14.70;99.90;;;;;;5077305;28;20049;-56
2022/09/12 06:38:46;;;;;;;28.08;19.77;;;14.90;99.90;;;;;;5066738;28;20538;-57
2022/09/12 06:41:12;;;;;;;27.98;20.05;;;15.00;99.90;;;;;;5074142;28;20124;-57
2022/09/12 06:43:39;;;;;;;25.67;19.23;;;15.10;99.90;;;;;;5074224;28;20055;-57
2022/09/12 06:46:06;;;;;;;29.75;21.95;;;15.20;99.90;;;;;;5074564;28;20033;-57
2022/09/12 06:48:32;;;;;;;31.08;21.52;;;15.20;99.90;;;;;;5074463;28;20055;-57
2022/09/12 06:51:01;;;;;;;32.40;21.38;;;15.20;99.90;;;;;;5056027;28;20426;-57
2022/09/12 06:53:27;;;;;;;29.55;21.80;;;15.20;99.90;;;;;;5074449;28;20127;-66
2022/09/12 06:56:09;;;;;;;26.88;20.00;;;15.20;99.90;;;;;;5074339;28;20045;-56
2022/09/12 06:58:35;;;;;;;30.67;21.90;;;15.40;99.90;;;;;;5049330;28;20041;-57
2022/09/12 07:01:21;;;;;;;27.20;21.83;;;15.40;99.90;;;;;;5068636;28;20082;-62
2022/09/12 07:03:50;;;;;;;27.38;20.65;;;15.40;99.90;;;;;;5058232;28;20036;-56
2022/09/12 07:06:19;;;;;;;30.73;22.10;;;15.50;99.90;;;;;;5074237;28;20040;-63
2022/09/12 07:08:45;;;;;;;31.92;22.33;;;15.50;99.90;;;;;;5074216;28;20119;-60
2022/09/12 07:11:14;;;;;;;28.92;22.33;;;15.60;99.90;;;;;;5074308;28;20055;-58
2022/09/12 07:13:41;;;;;;;27.05;20.27;;;15.60;99.90;;;;;;5055232;28;20147;-59
2022/09/12 07:16:08;;;;;;;29.35;21.42;;;15.70;99.90;;;;;;5073270;28;20044;-58
2022/09/12 07:18:36;;;;;;;29.45;22.00;;;15.80;99.90;;;;;;5073472;28;20504;-57
2022/09/12 07:21:04;;;;;;;26.88;21.40;;;15.90;99.90;;;;;;5074252;28;20048;-57
2022/09/12 07:23:30;;;;;;;28.63;21.15;;;16.00;99.90;;;;;;5072839;28;20048;-57
2022/09/12 07:25:57;;;;;;;28.05;21.10;;;16.10;99.90;;;;;;5056073;28;20145;-56
2022/09/12 07:28:24;;;;;;;27.05;19.77;;;16.20;99.90;;;;;;5073414;28;20045;-57
2022/09/12 07:30:52;;;;;;;30.77;21.95;;;16.30;99.90;;;;;;5055321;28;20053;-57
2022/09/12 07:33:27;;;;;;;30.05;21.17;;;16.30;99.90;;;;;;5070398;28;20088;-57
2022/09/12 07:35:53;;;;;;;32.70;23.90;;;16.40;99.90;;;;;;5073415;28;20040;-57
2022/09/12 07:38:22;;;;;;;28.75;20.48;;;16.60;99.90;;;;;;5073524;28;20047;-57
2022/09/12 07:40:48;;;;;;;34.20;24.38;;;16.70;99.90;;;;;;5055764;28;20141;-56
2022/09/12 07:43:14;;;;;;;27.13;20.98;;;16.80;99.90;;;;;;5073468;28;20439;-64
2022/09/12 07:45:41;;;;;;;33.47;22.50;;;17.00;99.90;;;;;;5055845;28;20043;-58
2022/09/12 07:48:07;;;;;;;30.08;22.10;;;17.30;99.90;;;;;;5072295;28;20418;-57
2022/09/12 07:50:34;;;;;;;32.50;21.75;;;17.30;99.90;;;;;;5073263;28;20041;-63
2022/09/12 07:53:01;;;;;;;30.35;21.85;;;17.40;99.90;;;;;;5055303;28;20071;-57
2022/09/12 07:55:27;;;;;;;29.40;21.27;;;17.60;99.90;;;;;;5073213;28;20055;-58
2022/09/12 07:57:54;;;;;;;26.45;19.95;;;17.80;99.90;;;;;;5066733;28;20127;-65
2022/09/12 08:00:20;;;;;;;31.23;22.67;;;17.70;99.90;;;;;;5072179;28;20494;-67
2022/09/12 08:02:50;;;;;;;34.03;24.20;;;17.80;99.90;;;;;;5055393;28;20036;-66
2022/09/12 08:05:16;;;;;;;30.10;21.70;;;17.70;99.90;;;;;;5054949;28;20518;-63
2022/09/12 08:07:42;;;;;;;28.10;20.33;;;17.80;99.90;;;;;;5072563;28;20036;-67
2022/09/12 08:10:08;;;;;;;26.48;19.52;;;17.70;99.90;;;;;;5070963;28;20100;-58
2022/09/12 08:12:34;;;;;;;27.73;20.85;;;17.90;99.90;;;;;;5071023;28;20043;-64
2022/09/12 08:15:00;;;;;;;29.48;19.45;;;17.90;99.90;;;;;;5071445;28;20091;-62
2022/09/12 08:17:25;;;;;;;26.92;19.55;;;18.10;99.90;;;;;;5071628;28;20087;-58
2022/09/12 08:19:51;;;;;;;28.13;19.98;;;18.80;99.90;;;;;;5072877;28;20120;-57
2022/09/12 08:22:19;;;;;;;30.05;20.33;;;18.30;99.90;;;;;;5054830;28;20091;-58
2022/09/12 08:24:45;;;;;;;28.65;20.17;;;18.60;99.90;;;;;;5072537;28;20044;-58
2022/09/12 08:27:11;;;;;;;26.92;19.00;;;18.60;99.90;;;;;;5072506;28;20182;-57
2022/09/12 08:29:36;;;;;;;23.30;16.92;;;18.90;99.90;;;;;;5072086;28;20064;-57
2022/09/12 08:32:02;;;;;;;27.65;19.15;;;18.80;99.90;;;;;;5072172;28;20044;-61
2022/09/12 08:34:28;;;;;;;26.50;17.58;;;19.20;99.90;;;;;;5072373;28;20049;-63
2022/09/12 08:36:54;;;;;;;23.60;16.95;;;19.50;99.90;;;;;;5072530;28;20052;-58
2022/09/12 08:39:20;;;;;;;21.25;16.65;;;19.40;99.90;;;;;;5072016;28;20074;-61
2022/09/12 08:41:54;;;;;;;24.63;18.60;;;19.70;99.90;;;;;;5072263;28;20043;-67
2022/09/12 08:44:34;;;;;;;21.13;15.73;;;19.60;99.90;;;;;;5072643;28;20048;-57
2022/09/12 08:47:10;;;;;;;27.58;16.88;;;19.50;99.90;;;;;;5071867;28;20363;-58
2022/09/12 08:49:52;;;;;;;22.02;14.30;;;19.60;99.90;;;;;;5072233;28;20459;-57
2022/09/12 08:52:30;;;;;;;19.52;13.75;;;19.70;99.90;;;;;;5072111;28;20033;-57
2022/09/12 08:54:56;;;;;;;23.25;15.75;;;19.80;99.90;;;;;;5072323;28;20107;-57
2022/09/12 08:57:23;;;;;;;19.63;13.50;;;20.20;99.90;;;;;;5072221;28;20059;-57
2022/09/12 08:59:49;;;;;;;22.25;15.15;;;20.20;99.90;;;;;;5071788;28;20510;-58
2022/09/12 09:02:29;;;;;;;18.58;13.15;;;20.50;99.90;;;;;;5071279;28;20111;-57
2022/09/12 09:05:11;;;;;;;20.17;13.27;;;20.40;99.90;;;;;;5071260;28;20557;-57
2022/09/12 09:08:05;;;;;;;16.27;12.60;;;20.70;99.90;;;;;;5071548;28;20047;-57
2022/09/12 09:10:40;;;;;;;19.30;12.48;;;20.80;99.90;;;;;;5072326;28;20048;-58
2022/09/12 09:16:14;;;;;;;;;;;20.90;99.90;;;;;;5059324;28;20529;-57
2022/09/12 09:18:42;;;;;;;;;;;21.00;99.90;;;;;;5054384;28;19935;-60
2022/09/12 09:21:14;;;;;;;;;;;21.10;99.90;;;;;;5072599;28;20010;-57
2022/09/12 09:23:45;;;;;;;;;;;21.00;99.90;;;;;;5072409;28;20370;-57
2022/09/12 09:26:31;;;;;;;;;;;21.30;99.90;;;;;;5068371;28;19920;-57
2022/09/12 09:29:13;;;;;;;;;;;21.60;99.90;;;;;;5063878;28;19920;-57
2022/09/12 09:31:39;;;;;;;;;;;21.40;99.90;;;;;;5065219;28;19924;-58
2022/09/12 09:34:11;;;;;;;;;;;21.80;99.90;;;;;;5062909;28;20009;-60
2022/09/12 09:36:43;;;;;;;;;;;21.40;99.90;;;;;;5069872;28;19928;-59
2022/09/12 09:39:15;;;;;;;;;;;21.50;99.90;;;;;;5064524;28;20011;-57
2022/09/12 09:41:59;;;;;;;;;;;21.50;99.90;;;;;;5065047;28;19920;-58
2022/09/12 09:44:27;;;;;;;;;;;21.70;99.90;;;;;;5063860;28;19928;-58
2022/09/12 09:46:54;;;;;;;;;;;21.80;99.90;;;;;;5065534;28;19928;-57
2022/09/12 09:49:20;;;;;;;;;;;22.00;99.90;;;;;;5067586;28;19931;-58
2022/09/12 09:51:46;;;;;;;;;;;22.20;99.90;;;;;;5073275;28;19924;-57
2022/09/12 09:54:21;;;;;;;;;;;22.30;99.90;;;;;;5075814;28;20413;-58
2022/09/12 09:56:46;;;;;;;;;;;22.00;99.90;;;;;;5075889;28;20367;-58
2022/09/12 09:59:12;;;;;;;;;;;22.30;99.90;;;;;;5075166;28;19970;-66
2022/09/12 10:01:56;;;;;;;;;;;21.70;99.90;;;;;;5075524;28;19927;-58
2022/09/12 10:04:45;;;;;;;;;;;21.90;99.90;;;;;;5075323;28;20374;-57
2022/09/12 10:07:18;;;;;;;;;;;22.20;99.90;;;;;;5056607;28;19931;-60
2022/09/12 10:10:02;;;;;;;;;;;22.60;99.90;;;;;;5059738;28;19921;-58
2022/09/12 10:12:27;;;;;;;;;;;22.80;99.90;;;;;;5057135;28;19921;-64
2022/09/12 10:15:00;;;;;;;;;;;22.70;99.90;;;;;;5075641;28;19924;-59
2022/09/12 10:17:27;;;;;;;;;;;22.70;99.90;;;;;;5067576;28;19988;-58
2022/09/12 10:19:53;;;;;;;;;;;23.00;99.90;;;;;;5075022;28;20336;-68
2022/09/12 10:22:23;;;;;;;;;;;23.10;99.90;;;;;;5075261;28;19920;-59
2022/09/12 10:24:51;;;;;;;;;;;23.40;99.90;;;;;;5073838;28;19967;-58
2022/09/12 10:27:22;;;;;;;;;;;23.40;99.90;;;;;;5073751;28;19920;-58
2022/09/12 10:29:55;;;;;;;;;;;23.80;99.90;;;;;;5074237;28;19963;-65
2022/09/12 10:32:27;;;;;;;;;;;24.40;99.90;;;;;;5068456;28;19927;-65
2022/09/12 10:34:54;;;;;;;;;;;24.60;99.90;;;;;;5064491;28;20011;-66
2022/09/12 10:37:31;;;;;;;;;;;24.60;99.90;;;;;;5064564;28;20019;-61
2022/09/12 10:39:58;;;;;;;;;;;24.50;99.90;;;;;;5074931;28;19967;-63
2022/09/12 10:42:42;;;;;;;;;;;24.70;99.90;;;;;;5074992;28;20427;-63
2022/09/12 10:45:37;;;;;;;;;;;24.80;99.90;;;;;;5056888;28;19920;-66
2022/09/12 10:48:21;;;;;;;;;;;24.80;99.90;;;;;;5050936;28;19974;-61
2022/09/12 10:50:47;;;;;;;;;;;24.90;99.90;;;;;;5064460;28;19924;-60
2022/09/12 10:53:14;;;;;;;;;;;24.60;99.90;;;;;;5045722;28;20640;-65
2022/09/12 10:55:41;;;;;;;;;;;25.00;99.90;;;;;;5065614;28;20271;-67
2022/09/12 10:58:12;;;;;;;;;;;24.80;99.90;;;;;;5063870;28;19924;-68
2022/09/12 11:00:39;;;;;;;;;;;25.10;99.90;;;;;;5063395;28;20374;-67
2022/09/12 11:03:14;;;;;;;;;;;24.60;99.90;;;;;;5067708;28;19978;-67
2022/09/12 11:05:57;;;;;;;;;;;25.00;99.90;;;;;;5065529;28;19928;-65
2022/09/12 11:08:31;;;;;;;;;;;25.20;99.90;;;;;;5062395;28;20029;-70
2022/09/12 11:11:00;;;;;;;;;;;25.20;99.90;;;;;;5068215;28;20433;-69
2022/09/12 11:13:28;;;;;;;;;;;25.60;99.90;;;;;;5074575;28;19924;-65
2022/09/12 11:16:12;;;;;;;;;;;25.80;99.90;;;;;;5056689;28;19968;-68
2022/09/12 11:18:38;;;;;;;;;;;25.50;99.90;;;;;;5066301;28;19932;-66
2022/09/12 11:21:18;;;;;;;;;;;25.90;99.90;;;;;;5073738;28;19925;-70
2022/09/12 11:23:58;;;;;;;;;;;27.40;99.90;;;;;;5057992;28;19920;-70
2022/09/12 11:26:33;;;;;;;;;;;29.10;99.90;;;;;;5073810;28;19934;-58
2022/09/12 11:29:05;;;;;;;;;;;29.30;99.20;;;;;;5074001;28;19920;-58
2022/09/12 11:31:43;;;;;;;;;;;30.50;98.00;;;;;;5061723;28;19921;-58
2022/09/12 11:34:09;;;;;;;;;;;30.80;97.40;;;;;;5055618;28;20285;-57
2022/09/12 11:36:38;;;;;;;;;;;31.60;96.90;;;;;;5059147;28;20285;-58
2022/09/12 11:39:11;;;;;;;;;;;30.80;95.40;;;;;;5073851;28;20361;-57
2022/09/12 11:41:38;;;;;;;;;;;30.00;95.70;;;;;;5055544;28;19966;-57
2022/09/12 11:44:36;;;;;;;;;;;29.40;96.70;;;;;;5073889;28;19926;-57
2022/09/12 11:47:08;;;;;;;;;;;29.00;98.80;;;;;;4987149;28;19971;-58
2022/09/12 11:49:36;;;;;;;;;;;28.00;96.80;;;;;;5072675;28;19927;-58
2022/09/12 11:52:15;;;;;;;;;;;27.60;98.20;;;;;;5046396;28;19924;-58
2022/09/12 11:54:47;;;;;;;;;;;27.40;97.90;;;;;;5063781;28;19926;-57
2022/09/12 11:57:19;;;;;;;;;;;27.60;98.90;;;;;;5065787;28;19920;-58
2022/09/12 11:59:52;;;;;;;;;;;28.10;98.70;;;;;;5065301;28;19928;-58
2022/09/12 12:02:28;;;;;;;;;;;27.90;97.20;;;;;;5063690;28;20015;-58
2022/09/12 12:04:54;;;;;;;;;;;27.70;98.20;;;;;;5065741;28;19928;-58
2022/09/12 12:07:20;;;;;;;;;;;27.40;97.60;;;;;;5066998;28;19928;-58
2022/09/12 12:09:48;;;;;;;;;;;27.80;97.60;;;;;;5066304;28;19920;-58
2022/09/12 12:12:15;;;;;;;;;;;27.50;98.00;;;;;;5063990;28;20389;-58
2022/09/12 12:14:42;;;;;;;;;;;27.30;97.30;;;;;;5069889;28;19966;-58
2022/09/12 12:17:12;;;;;;;;;;;27.80;98.10;;;;;;5068355;28;20406;-58
2022/09/12 12:19:38;;;;;;;;;;;28.20;97.90;;;;;;5072911;28;19926;-58
2022/09/12 12:22:05;;;;;;;;;;;28.30;96.90;;;;;;5071369;28;19920;-58
2022/09/12 12:24:32;;;;;;;;;;;28.10;97.10;;;;;;5072692;28;20397;-57
2022/09/12 12:27:00;;;;;;;;;;;28.40;96.40;;;;;;5072382;28;19991;-58
2022/09/12 12:29:34;;;;;;;;;;;28.30;98.00;;;;;;5072261;28;19928;-58
2022/09/12 12:32:03;;;;;;;;;;;28.50;98.00;;;;;;5067854;28;20554;-58
2022/09/12 12:34:32;;;;;;;;;;;29.20;97.40;;;;;;5065502;28;19921;-58
2022/09/12 12:36:58;;;;;;;;;;;28.60;96.80;;;;;;5060188;28;19931;-58
2022/09/12 12:39:30;;;;;;;;;;;28.40;96.90;;;;;;5064959;28;20289;-58
2022/09/12 12:41:56;;;;;;;;;;;29.20;97.10;;;;;;5072524;28;19967;-58
2022/09/12 12:44:40;;;;;;;;;;;29.50;96.80;;;;;;5072314;28;19970;-58
2022/09/12 12:47:08;;;;;;;;;;;28.80;95.90;;;;;;5072172;28;20439;-58
2022/09/12 12:49:33;;;;;;;;;;;29.90;96.40;;;;;;5077274;28;19924;-58
2022/09/12 12:52:02;;;;;;;;;;;30.00;95.70;;;;;;5071038;28;19924;-58
2022/09/12 12:54:32;;;;;;;;;;;30.40;95.10;;;;;;5071343;28;19974;-58
2022/09/12 12:57:03;;;;;;;;;;;30.20;94.90;;;;;;5068658;28;19926;-58
2022/09/12 12:59:29;;;;;;;;;;;31.20;94.80;;;;;;5071698;28;19920;-58
2022/09/12 13:01:56;;;;;;;;;;;31.40;93.00;;;;;;5063874;28;20025;-58
2022/09/12 13:04:23;;;;;;;;;;;31.60;93.60;;;;;;5065255;28;19924;-58
2022/09/12 13:06:55;;;;;;;;;;;30.70;93.00;;;;;;5036563;28;19927;-58
2022/09/12 13:09:23;;;;;;;;;;;31.90;93.70;;;;;;5068263;28;19924;-58
2022/09/12 13:12:03;;;;;;;;;;;31.90;93.00;;;;;;5071088;28;20354;-58
2022/09/12 13:14:41;;;;;;;;;;;32.50;92.90;;;;;;5071096;28;19999;-61
2022/09/12 13:17:12;;;;;;;;;;;31.70;92.50;;;;;;5066980;28;19924;-66
2022/09/12 13:19:39;;;;;;;;;;;31.30;92.30;;;;;;5071502;28;19920;-68
2022/09/12 13:22:06;;;;;;;;;;;30.90;92.80;;;;;;5071567;28;19927;-63
2022/09/12 13:24:32;;;;;;;;;;;30.20;93.00;;;;;;5068785;28;19920;-58